createdAt,value
2023-03-02T00:02:54.253Z,95526.00
2023-03-02T00:07:58.006Z,95528.31
2023-03-02T00:12:59.691Z,95528.31
2023-03-02T00:18:01.237Z,95517.66
2023-03-02T00:23:02.744Z,95523.50
2023-03-02T00:28:04.442Z,95531.56
2023-03-02T00:33:06.026Z,95533.31
2023-03-02T00:38:07.948Z,95523.09
2023-03-02T00:43:09.482Z,95513.78
2023-03-02T00:48:11.036Z,95503.16
2023-03-02T00:53:12.678Z,95500.50
2023-03-02T00:58:14.187Z,95499.66
2023-03-02T01:03:16.089Z,95485.53
2023-03-02T01:08:17.705Z,95495.97
2023-03-02T01:13:21.003Z,95499.69
2023-03-02T01:24:51.294Z,95475.47
2023-03-02T01:29:52.946Z,95473.88
2023-03-02T01:34:55.063Z,95472.56
2023-03-02T01:39:56.645Z,95460.44
2023-03-02T01:44:58.406Z,95461.78
2023-03-02T01:50:18.926Z,95466.28
2023-03-02T01:55:24.954Z,95452.63
2023-03-02T02:00:31.862Z,95445.41
2023-03-02T02:05:33.728Z,95452.13
2023-03-02T02:10:35.657Z,95446.94
2023-03-02T02:15:40.188Z,95448.06
2023-03-02T02:20:44.785Z,95439.97
2023-03-02T02:25:52.519Z,95445.78
2023-03-02T02:31:18.998Z,95436.28
2023-03-02T02:36:26.370Z,95432.00
2023-03-02T02:41:34.186Z,95436.69
2023-03-02T02:46:36.209Z,95443.59
2023-03-02T02:51:37.852Z,95444.31
2023-03-02T02:56:39.704Z,95448.06
2023-03-02T03:01:45.280Z,95441.91
2023-03-02T03:06:56.869Z,95443.59
2023-03-02T03:12:16.561Z,95436.41
2023-03-02T03:17:18.717Z,95455.03
2023-03-02T03:22:35.150Z,95443.75
2023-03-02T03:27:37.567Z,95432.53
2023-03-02T03:32:40.936Z,95443.59
2023-03-02T03:37:43.098Z,95438.88
2023-03-02T03:42:45.945Z,95452.28
2023-03-02T03:47:47.970Z,95447.06
2023-03-02T03:52:49.877Z,95443.22
2023-03-02T03:57:56.869Z,95440.19
2023-03-02T04:02:59.119Z,95448.53
2023-03-02T04:08:02.701Z,95437.00
2023-03-02T04:13:05.908Z,95439.91
2023-03-02T04:18:08.820Z,95445.91
2023-03-02T04:23:11.556Z,95448.72
2023-03-02T04:28:17.107Z,95445.19
2023-03-02T04:33:20.119Z,95445.38
2023-03-02T04:38:23.380Z,95449.53
2023-03-02T04:43:26.012Z,95449.97
2023-03-02T04:48:27.613Z,95451.09
2023-03-02T04:53:29.238Z,95439.53
2023-03-02T04:58:30.934Z,95446.47
2023-03-02T05:03:32.668Z,95443.44
2023-03-02T05:08:34.809Z,95450.94
2023-03-02T05:13:36.492Z,95453.75
2023-03-02T05:18:38.090Z,95465.72
2023-03-02T05:23:40.187Z,95470.03
2023-03-02T05:28:42.239Z,95467.38
2023-03-02T05:33:43.864Z,95466.06
2023-03-02T05:38:45.372Z,95473.94
2023-03-02T05:43:47.126Z,95476.69
2023-03-02T05:48:49.475Z,95486.28
2023-03-02T05:53:51.175Z,95480.75
2023-03-02T05:58:52.681Z,95501.44
2023-03-02T06:03:54.136Z,95498.63
2023-03-02T06:08:55.678Z,95504.47
2023-03-02T06:13:57.294Z,95498.22
2023-03-02T06:18:59.269Z,95515.41
2023-03-02T06:24:00.732Z,95514.97
2023-03-02T06:29:02.237Z,95515.53
2023-03-02T06:34:03.746Z,95524.72
2023-03-02T06:39:06.786Z,95534.53
2023-03-02T06:44:08.390Z,95534.97
2023-03-02T06:49:12.969Z,95540.31
2023-03-02T06:54:15.397Z,95539.09
2023-03-02T06:59:16.939Z,95543.56
2023-03-02T07:04:18.599Z,95544.00
2023-03-02T07:09:20.291Z,95553.84
2023-03-02T07:14:21.750Z,95550.91
2023-03-02T07:19:23.334Z,95560.28
2023-03-02T07:24:24.984Z,95560.63
2023-03-02T07:29:26.638Z,95571.78
2023-03-02T07:34:28.368Z,95580.34
2023-03-02T07:39:30.123Z,95582.22
2023-03-02T07:44:31.759Z,95576.81
2023-03-02T07:49:33.308Z,95592.16
2023-03-02T07:54:34.815Z,95592.47
2023-03-02T07:59:36.407Z,95594.44
2023-03-02T08:04:37.984Z,95612.69
2023-03-02T08:09:40.135Z,95614.16
2023-03-02T08:14:41.665Z,95613.34
2023-03-02T08:19:43.213Z,95610.03
2023-03-02T08:24:44.775Z,95616.09
2023-03-02T08:29:46.308Z,95619.88
2023-03-02T08:34:47.822Z,95620.75
2023-03-02T08:39:49.350Z,95623.13
2023-03-02T08:44:50.903Z,95620.75
2023-03-02T08:49:52.421Z,95624.59
2023-03-02T08:54:54.020Z,95627.94
2023-03-02T08:59:55.756Z,95629.63
2023-03-02T09:04:57.306Z,95634.81
2023-03-02T09:09:58.778Z,95622.97
2023-03-02T09:15:00.338Z,95630.88
2023-03-02T09:20:01.856Z,95647.38
2023-03-02T09:25:05.043Z,95642.66
2023-03-02T09:30:07.693Z,95645.31
2023-03-02T09:35:09.652Z,95643.00
2023-03-02T09:40:33.153Z,95650.22
2023-03-02T09:45:54.290Z,95655.66
2023-03-02T09:51:22.314Z,95658.69
2023-03-02T09:56:24.007Z,95661.94
2023-03-02T10:01:37.176Z,95654.72
2023-03-02T10:06:38.741Z,95658.16
2023-03-02T10:12:00.244Z,95651.78
2023-03-02T10:17:26.878Z,95656.44
2023-03-02T10:22:52.731Z,95662.53
2023-03-02T10:28:05.590Z,95675.00
2023-03-02T10:33:15.043Z,95672.50
2023-03-02T10:38:22.612Z,95672.28
2023-03-02T10:43:31.575Z,95669.38
2023-03-02T10:48:33.454Z,95676.03
2023-03-02T10:53:34.956Z,95680.22
2023-03-02T10:58:36.434Z,95669.75
2023-03-02T11:03:37.998Z,95670.94
2023-03-02T11:08:39.534Z,95672.63
2023-03-02T11:13:41.066Z,95683.81
2023-03-02T11:18:48.444Z,95676.41
2023-03-02T11:24:04.982Z,95685.78
2023-03-02T11:29:13.511Z,95689.03
2023-03-02T11:34:27.177Z,95687.56
2023-03-02T11:39:55.080Z,95686.22
2023-03-02T11:45:01.809Z,95684.13
2023-03-02T11:50:05.749Z,95683.72
2023-03-02T11:55:12.969Z,95685.19
2023-03-02T12:00:42.497Z,95679.22
2023-03-02T12:05:47.310Z,95682.25
2023-03-02T12:11:07.645Z,95678.19
2023-03-02T12:16:18.288Z,95683.59
2023-03-02T12:21:21.929Z,95679.63
2023-03-02T12:26:28.406Z,95672.63
2023-03-02T12:31:55.389Z,95676.47
2023-03-02T12:37:02.392Z,95670.22
2023-03-02T12:42:38.128Z,95672.72
2023-03-02T12:47:44.720Z,95669.16
2023-03-02T12:52:57.513Z,95662.47
2023-03-02T12:58:01.037Z,95663.28
2023-03-02T13:03:03.208Z,95672.28
2023-03-02T13:08:04.892Z,95667.81
2023-03-02T13:13:18.750Z,95665.59
2023-03-02T13:18:26.170Z,95670.81
2023-03-02T13:23:30.195Z,95662.72
2023-03-02T13:28:37.793Z,95664.19
2023-03-02T13:33:44.917Z,95669.88
2023-03-02T13:38:50.139Z,95667.09
2023-03-02T13:43:51.717Z,95671.63
2023-03-02T13:49:09.040Z,95665.13
2023-03-02T13:54:15.117Z,95669.75
2023-03-02T13:59:18.576Z,95670.84
2023-03-02T14:04:22.279Z,95670.75
2023-03-02T14:09:23.821Z,95677.56
2023-03-02T14:14:27.579Z,95684.16
2023-03-02T14:19:29.208Z,95683.66
2023-03-02T14:24:30.750Z,95684.16
2023-03-02T14:29:33.435Z,95684.25
2023-03-02T14:34:37.052Z,95681.38
2023-03-02T14:39:40.988Z,95685.19
2023-03-02T14:44:43.564Z,95685.75
2023-03-02T14:49:45.561Z,95686.47
2023-03-02T14:54:54.143Z,95684.78
2023-03-02T14:59:56.726Z,95690.25
2023-03-02T15:04:58.286Z,95696.53
2023-03-02T15:09:59.920Z,95698.28
2023-03-02T15:15:01.734Z,95699.84
2023-03-02T15:20:03.885Z,95705.16
2023-03-02T15:25:05.794Z,95695.19
2023-03-02T15:30:07.977Z,95705.47
2023-03-02T15:35:09.694Z,95702.13
2023-03-02T15:40:11.911Z,95699.75
2023-03-02T15:45:13.479Z,95694.38
2023-03-02T15:50:15.094Z,95697.31
2023-03-02T15:55:16.713Z,95707.16
2023-03-02T16:00:18.721Z,95716.28
2023-03-02T16:05:20.237Z,95701.81
2023-03-02T16:10:21.752Z,95718.56
2023-03-02T16:15:23.307Z,95714.47
2023-03-02T16:20:24.803Z,95720.66
2023-03-02T16:25:26.294Z,95717.63
2023-03-02T16:30:28.771Z,95729.47
2023-03-02T16:35:32.818Z,95730.78
2023-03-02T16:40:34.375Z,95733.00
2023-03-02T16:45:36.692Z,95739.69
2023-03-02T16:50:38.241Z,95737.81
2023-03-02T16:55:39.752Z,95742.81
2023-03-02T17:00:41.272Z,95754.75
2023-03-02T17:05:43.414Z,95754.53
2023-03-02T17:10:44.989Z,95755.13
2023-03-02T17:15:46.480Z,95763.44
2023-03-02T17:20:51.707Z,95761.16
2023-03-02T17:25:53.773Z,95764.13
2023-03-02T17:30:55.557Z,95774.88
2023-03-02T17:35:57.150Z,95783.34
2023-03-02T17:41:02.146Z,95789.28
2023-03-02T17:46:21.273Z,95794.59
2023-03-02T17:51:24.403Z,95791.97
2023-03-02T17:56:27.892Z,95798.88
2023-03-02T18:01:29.772Z,95801.50
2023-03-02T18:06:31.322Z,95801.69
2023-03-02T18:11:33.022Z,95813.38
2023-03-02T18:16:34.882Z,95818.72
2023-03-02T18:21:37.078Z,95818.53
2023-03-02T18:26:38.605Z,95820.47
2023-03-02T18:31:40.184Z,95827.34
2023-03-02T18:36:41.807Z,95823.97
2023-03-02T18:41:43.406Z,95823.63
2023-03-02T18:46:45.030Z,95829.34
2023-03-02T18:51:46.767Z,95832.88
2023-03-02T18:56:48.263Z,95832.47
2023-03-02T19:01:49.854Z,95831.84
2023-03-02T19:06:51.884Z,95834.47
2023-03-02T19:11:53.618Z,95834.09
2023-03-02T19:16:55.105Z,95822.53
2023-03-02T19:21:56.643Z,95825.72
2023-03-02T19:26:58.278Z,95829.06
2023-03-02T19:32:00.017Z,95829.19
2023-03-02T19:37:01.559Z,95838.22
2023-03-02T19:42:03.394Z,95838.09
2023-03-02T19:47:04.925Z,95839.94
2023-03-02T19:52:06.397Z,95847.53
2023-03-02T19:57:07.912Z,95844.25
2023-03-02T20:02:09.437Z,95850.16
2023-03-02T20:07:10.951Z,95845.13
2023-03-02T20:12:12.531Z,95858.06
2023-03-02T20:17:13.994Z,95852.56
2023-03-02T20:22:16.426Z,95853.69
2023-03-02T20:27:18.191Z,95858.25
2023-03-02T20:32:20.053Z,95866.09
2023-03-02T20:37:21.610Z,95862.06
2023-03-02T20:42:23.236Z,95861.41
2023-03-02T20:47:24.815Z,95856.78
2023-03-02T20:52:26.878Z,95871.13
2023-03-02T20:57:28.409Z,95869.44
2023-03-02T21:02:29.882Z,95867.75
2023-03-02T21:07:31.458Z,95868.50
2023-03-02T21:12:33.037Z,95871.69
2023-03-02T21:17:34.766Z,95873.44
2023-03-02T21:22:36.210Z,95868.88
2023-03-02T21:27:38.775Z,95869.97
2023-03-02T21:32:40.299Z,95873.38
2023-03-02T21:37:43.202Z,95868.41
2023-03-02T21:42:45.103Z,95869.34
2023-03-02T21:47:46.622Z,95862.47
2023-03-02T21:52:48.631Z,95860.78
2023-03-02T21:57:50.161Z,95864.69
2023-03-02T22:02:51.739Z,95861.06
2023-03-02T22:07:53.381Z,95851.91
2023-03-02T22:13:04.401Z,95853.03
2023-03-02T22:18:11.608Z,95847.63
2023-03-02T22:23:15.241Z,95841.19
2023-03-02T22:28:23.189Z,95843.25
2023-03-02T22:33:28.118Z,95844.81
2023-03-02T22:38:30.672Z,95841.09
2023-03-02T22:43:34.973Z,95843.72
2023-03-02T22:48:38.056Z,95846.59
2023-03-02T22:53:46.443Z,95844.25
2023-03-02T22:58:50.276Z,95852.28
2023-03-02T23:04:08.373Z,95854.44
2023-03-02T23:09:09.861Z,95843.44
2023-03-02T23:14:18.485Z,95843.88
2023-03-02T23:19:20.546Z,95846.75
2023-03-02T23:24:22.115Z,95847.22
2023-03-02T23:29:23.683Z,95846.13
2023-03-02T23:34:25.237Z,95835.31
2023-03-02T23:39:26.955Z,95835.88
2023-03-02T23:44:28.429Z,95839.78
2023-03-02T23:49:29.935Z,95835.41
2023-03-02T23:54:31.401Z,95831.28
2023-03-02T23:59:32.875Z,95835.88
